Time;durP1;ratioP1;P1;durP2;ratioP2;P2;SDS_P1;SDS_P2;PMS_P1;PMS_P2;Temp;Humidity;BMP_temperature;BMP_pressure;BME280_temperature;BME280_humidity;BME280_pressure;Samples;Min_cycle;Max_cycle;Signal;HPM_P1;HPM_P2
2023/04/03 00:02:16;;;;;;;2.23;1.77;;;4.50;99.90;;;;;;6225828;23;20174;-87
2023/04/03 00:04:42;;;;;;;5.97;2.83;;;4.40;99.90;;;;;;6226684;22;20417;-88
2023/04/03 00:07:07;;;;;;;2.30;2.10;;;4.30;99.90;;;;;;6258385;22;20180;-88
2023/04/03 00:09:33;;;;;;;1.80;1.70;;;4.30;99.90;;;;;;6255893;22;20148;-89
2023/04/03 00:11:59;;;;;;;2.93;2.30;;;4.20;99.90;;;;;;6255304;22;20239;-87
2023/04/03 00:14:24;;;;;;;5.70;2.40;;;;;;;;;;6282701;22;20199;-86
2023/04/03 00:16:50;;;;;;;5.63;2.23;;;4.20;99.90;;;;;;6257956;22;20206;-86
2023/04/03 00:19:16;;;;;;;3.33;2.40;;;;;;;;;;6282981;22;20738;-86
2023/04/03 00:21:41;;;;;;;2.80;2.03;;;4.30;99.90;;;;;;6260983;22;20215;-86
2023/04/03 00:24:07;;;;;;;2.63;2.20;;;4.30;99.90;;;;;;6258961;22;20379;-86
2023/04/03 00:26:32;;;;;;;3.30;2.80;;;4.40;99.90;;;;;;6260635;22;20183;-86
2023/04/03 00:28:58;;;;;;;1.87;1.30;;;4.50;99.90;;;;;;6261819;22;20211;-86
2023/04/03 00:31:23;;;;;;;3.50;2.10;;;4.50;99.90;;;;;;6258972;22;20152;-86
2023/04/03 00:33:49;;;;;;;1.67;1.40;;;4.40;99.90;;;;;;6284119;22;20888;-86
2023/04/03 00:36:15;;;;;;;3.17;2.20;;;4.40;99.90;;;;;;6256998;22;20189;-86
2023/04/03 00:38:41;;;;;;;2.90;1.88;;;4.30;99.90;;;;;;6258034;22;20155;-86
2023/04/03 00:41:07;;;;;;;2.00;1.80;;;4.30;99.90;;;;;;6259331;22;20147;-86
2023/04/03 00:43:33;;;;;;;5.77;2.13;;;4.30;99.90;;;;;;6259230;22;20158;-86
2023/04/03 00:46:00;;;;;;;8.37;2.80;;;4.30;99.90;;;;;;6253872;22;20471;-85
2023/04/03 00:48:46;;;;;;;2.40;1.77;;;4.30;99.90;;;;;;6279497;22;20154;-86
2023/04/03 00:51:21;;;;;;;2.05;1.52;;;4.20;99.90;;;;;;6254591;22;20147;-86
2023/04/03 00:53:51;;;;;;;2.33;1.70;;;4.30;99.90;;;;;;6253901;22;20312;-86
2023/04/03 00:56:21;;;;;;;2.28;2.00;;;4.20;99.90;;;;;;6254440;22;20171;-87
2023/04/03 00:58:59;;;;;;;4.75;1.98;;;4.20;99.90;;;;;;6281309;22;20277;-87
2023/04/03 01:01:27;;;;;;;1.95;1.70;;;4.10;99.90;;;;;;6251368;22;20147;-86
2023/04/03 01:03:53;;;;;;;2.63;2.00;;;4.10;99.90;;;;;;6249917;22;20148;-87
2023/04/03 01:06:24;;;;;;;2.95;2.20;;;4.10;99.90;;;;;;6251910;22;20843;-86
2023/04/03 01:08:50;;;;;;;1.95;1.85;;;4.00;99.90;;;;;;6278179;22;20576;-86
2023/04/03 01:11:16;;;;;;;3.30;2.47;;;4.00;99.90;;;;;;6249706;22;20219;-86
2023/04/03 01:13:42;;;;;;;6.90;2.10;;;3.90;99.90;;;;;;6251725;22;20148;-85
2023/04/03 01:16:08;;;;;;;3.55;1.88;;;3.90;99.90;;;;;;6253832;22;20199;-85
2023/04/03 01:18:37;;;;;;;6.53;2.57;;;3.90;99.90;;;;;;6253380;22;20152;-84
2023/04/03 01:21:27;;;;;;;5.50;2.00;;;6.20;99.90;;;;;;6251871;22;20186;-84
2023/04/03 01:23:59;;;;;;;2.63;1.90;;;3.90;99.90;;;;;;6249506;22;20163;-84
2023/04/03 01:26:25;;;;;;;3.72;1.83;;;3.80;99.90;;;;;;6248127;22;20490;-84
2023/04/03 01:28:53;;;;;;;5.47;2.17;;;3.80;99.90;;;;;;6253457;22;20612;-84
2023/04/03 01:31:45;;;;;;;3.15;2.30;;;3.70;99.90;;;;;;6255223;22;20462;-84
2023/04/03 01:34:11;;;;;;;7.22;2.10;;;3.60;99.90;;;;;;6250606;22;20215;-84
2023/04/03 01:36:37;;;;;;;2.00;1.67;;;3.60;99.90;;;;;;6276713;22;20172;-84
2023/04/03 01:39:02;;;;;;;2.80;1.77;;;3.50;99.90;;;;;;6248116;22;20156;-84
2023/04/03 01:41:28;;;;;;;3.33;2.30;;;3.60;99.90;;;;;;6247352;22;20213;-84
2023/04/03 01:43:54;;;;;;;3.05;1.70;;;3.60;99.90;;;;;;6249716;22;20884;-84
2023/04/03 01:46:20;;;;;;;2.90;2.10;;;3.60;99.90;;;;;;6248524;22;20170;-84
2023/04/03 01:48:46;;;;;;;3.85;2.05;;;3.60;99.90;;;;;;6256844;22;20156;-83
2023/04/03 01:51:12;;;;;;;3.28;1.75;;;3.60;99.90;;;;;;6251170;22;20210;-84
2023/04/03 01:53:38;;;;;;;7.37;2.37;;;3.60;99.90;;;;;;6276838;22;20183;-84
2023/04/03 01:56:04;;;;;;;4.93;2.43;;;3.60;99.90;;;;;;6279034;22;20202;-83
2023/04/03 01:58:30;;;;;;;2.63;1.63;;;3.60;99.90;;;;;;6284210;22;20191;-84
2023/04/03 02:00:55;;;;;;;2.97;1.57;;;;;;;;;;6280763;22;20650;-84
2023/04/03 02:03:21;;;;;;;2.53;1.80;;;3.60;99.90;;;;;;6279027;22;20333;-84
2023/04/03 02:05:47;;;;;;;6.17;2.57;;;3.60;99.90;;;;;;6268938;22;20419;-84
2023/04/03 02:08:13;;;;;;;3.43;2.40;;;3.50;99.90;;;;;;6249083;23;20251;-83
2023/04/03 02:10:39;;;;;;;4.60;2.42;;;3.60;99.90;;;;;;6220646;23;20170;-84
2023/04/03 02:13:05;;;;;;;2.23;1.90;;;3.60;99.90;;;;;;6219407;23;20544;-84
2023/04/03 02:15:30;;;;;;;1.87;1.47;;;3.70;99.90;;;;;;6222073;23;20644;-84
2023/04/03 02:17:56;;;;;;;4.17;1.57;;;;;;;;;;6251486;23;20144;-84
2023/04/03 02:20:22;;;;;;;2.33;1.57;;;3.70;99.90;;;;;;6221493;23;20157;-84
2023/04/03 02:22:48;;;;;;;2.30;2.10;;;3.70;99.90;;;;;;6218904;23;20382;-84
2023/04/03 02:25:14;;;;;;;3.87;1.60;;;3.70;99.90;;;;;;6221403;23;20228;-84
2023/04/03 02:27:39;;;;;;;3.80;2.08;;;3.70;99.90;;;;;;6226168;23;20176;-86
2023/04/03 02:30:05;;;;;;;1.47;1.37;;;3.70;99.90;;;;;;6226490;23;20148;-86
2023/04/03 02:32:32;;;;;;;3.03;1.63;;;3.80;99.90;;;;;;6224412;23;20152;-85
2023/04/03 02:34:57;;;;;;;4.28;2.50;;;3.70;99.90;;;;;;6225652;22;20153;-86
2023/04/03 02:37:23;;;;;;;3.77;2.37;;;3.70;99.90;;;;;;6225367;23;20152;-86
2023/04/03 02:39:49;;;;;;;2.17;1.87;;;3.60;99.90;;;;;;6226294;23;20157;-86
2023/04/03 02:42:14;;;;;;;3.70;2.43;;;3.60;99.90;;;;;;6227065;23;20212;-86
2023/04/03 02:44:40;;;;;;;3.77;2.30;;;;;;;;;;6253215;22;20150;-86
2023/04/03 02:47:06;;;;;;;3.17;2.23;;;3.60;99.90;;;;;;6229547;23;20172;-86
2023/04/03 02:49:31;;;;;;;5.17;2.40;;;3.50;99.90;;;;;;6226746;23;20761;-86
2023/04/03 02:51:57;;;;;;;3.63;2.23;;;3.60;99.90;;;;;;6223652;23;20537;-86
2023/04/03 02:54:24;;;;;;;4.77;1.77;;;3.70;99.90;;;;;;6224487;23;20152;-86
2023/04/03 02:56:50;;;;;;;3.10;2.30;;;3.70;99.90;;;;;;6225367;23;20448;-84
2023/04/03 02:59:16;;;;;;;3.85;2.38;;;3.70;99.90;;;;;;6255138;23;20160;-85
2023/04/03 03:01:41;;;;;;;5.10;1.80;;;3.60;99.90;;;;;;6225266;23;20156;-86
2023/04/03 03:04:07;;;;;;;3.40;1.80;;;3.70;99.90;;;;;;6225442;23;20164;-86
2023/04/03 03:06:33;;;;;;;2.97;2.00;;;;;;;;;;6249979;22;20221;-87
2023/04/03 03:08:58;;;;;;;3.60;1.43;;;3.70;99.90;;;;;;6257236;22;20244;-86
2023/04/03 03:11:25;;;;;;;2.37;2.17;;;3.70;99.90;;;;;;6259065;22;20436;-86
2023/04/03 03:13:50;;;;;;;2.05;1.80;;;3.70;99.90;;;;;;6260857;22;20143;-86
2023/04/03 03:16:16;;;;;;;2.83;2.03;;;3.60;99.90;;;;;;6260308;22;20172;-86
2023/04/03 03:18:41;;;;;;;5.93;2.30;;;3.30;99.90;;;;;;6259542;22;20152;-86
2023/04/03 03:21:09;;;;;;;7.33;1.73;;;3.40;99.90;;;;;;6256861;22;20171;-87
2023/04/03 03:23:34;;;;;;;3.20;2.08;;;3.40;99.90;;;;;;6263344;22;20214;-85
2023/04/03 03:26:06;;;;;;;2.47;1.73;;;3.50;99.90;;;;;;6286668;22;20178;-87
2023/04/03 03:28:32;;;;;;;4.00;2.35;;;3.50;99.90;;;;;;6262566;22;20140;-85
2023/04/03 03:30:59;;;;;;;2.67;2.00;;;3.50;99.90;;;;;;6258091;22;20198;-87
2023/04/03 03:33:26;;;;;;;7.18;2.80;;;3.50;99.90;;;;;;6260104;22;20148;-87
2023/04/03 03:35:52;;;;;;;9.48;2.92;;;3.60;99.90;;;;;;6255816;22;20187;-87
2023/04/03 03:38:18;;;;;;;2.35;2.03;;;3.60;99.90;;;;;;6252411;22;20160;-87
2023/04/03 03:40:44;;;;;;;9.30;2.65;;;3.50;99.90;;;;;;6243971;22;20274;-86
2023/04/03 03:43:09;;;;;;;3.53;2.43;;;3.50;99.90;;;;;;6271650;22;20139;-87
2023/04/03 03:45:35;;;;;;;6.30;3.00;;;3.50;99.90;;;;;;6277746;22;20171;-86
2023/04/03 03:48:02;;;;;;;8.80;3.07;;;3.50;99.90;;;;;;6255574;22;20292;-87
2023/04/03 03:50:28;;;;;;;4.55;2.80;;;3.50;99.90;;;;;;6251377;22;20152;-87
2023/04/03 03:52:54;;;;;;;4.13;3.00;;;3.60;99.90;;;;;;6276087;22;20215;-88
2023/04/03 03:55:19;;;;;;;4.20;2.50;;;3.50;99.90;;;;;;6253057;22;20250;-87
2023/04/03 03:57:45;;;;;;;4.33;2.63;;;3.50;99.90;;;;;;6250857;22;20211;-87
2023/04/03 04:00:11;;;;;;;3.50;2.30;;;3.60;99.90;;;;;;6252527;22;20140;-88
2023/04/03 04:02:36;;;;;;;7.32;5.10;;;3.60;99.90;;;;;;6253559;22;20270;-86
2023/04/03 04:05:02;;;;;;;4.57;3.07;;;3.50;99.90;;;;;;6250153;22;20504;-85
2023/04/03 04:07:29;;;;;;;3.40;2.40;;;3.40;99.90;;;;;;6221462;23;20214;-84
2023/04/03 04:09:54;;;;;;;8.65;5.22;;;3.40;99.90;;;;;;6222950;23;20240;-83
2023/04/03 04:12:20;;;;;;;7.07;4.13;;;3.40;99.90;;;;;;6219507;23;20179;-85
2023/04/03 04:14:46;;;;;;;6.53;3.60;;;3.40;99.90;;;;;;6213925;22;20198;-85
2023/04/03 04:17:13;;;;;;;10.90;8.60;;;3.40;99.90;;;;;;6245842;23;20371;-85
2023/04/03 04:19:38;;;;;;;8.02;5.30;;;3.30;99.90;;;;;;6246472;23;20387;-85
2023/04/03 04:22:04;;;;;;;9.70;6.13;;;3.30;99.90;;;;;;6220300;23;20846;-85
2023/04/03 04:24:29;;;;;;;8.90;5.20;;;3.20;99.90;;;;;;6220422;23;20255;-85
2023/04/03 04:26:55;;;;;;;7.13;4.67;;;3.20;99.90;;;;;;6247134;22;20184;-86
2023/04/03 04:29:20;;;;;;;14.60;10.07;;;3.20;99.90;;;;;;6247743;23;20159;-86
2023/04/03 04:31:47;;;;;;;5.40;4.17;;;3.10;99.90;;;;;;6222977;23;20148;-87
2023/04/03 04:34:12;;;;;;;3.53;3.22;;;3.10;99.90;;;;;;6251875;23;20140;-84
2023/04/03 04:36:39;;;;;;;3.60;2.97;;;3.10;99.90;;;;;;6219975;23;20805;-84
2023/04/03 04:39:05;;;;;;;3.72;2.55;;;3.00;99.90;;;;;;6245852;23;20159;-84
2023/04/03 04:41:30;;;;;;;10.83;3.07;;;2.90;99.90;;;;;;6220715;23;20522;-86
2023/04/03 04:43:56;;;;;;;6.40;3.60;;;2.70;99.90;;;;;;6249609;23;20164;-87
2023/04/03 04:46:22;;;;;;;4.10;3.00;;;2.60;99.90;;;;;;6216539;23;20397;-86
2023/04/03 04:48:48;;;;;;;5.43;2.42;;;2.50;99.90;;;;;;6243906;23;20235;-86
2023/04/03 04:51:14;;;;;;;7.43;5.43;;;2.40;99.90;;;;;;6216217;23;20192;-86
2023/04/03 04:53:39;;;;;;;6.38;4.40;;;2.50;99.90;;;;;;6245545;23;20367;-86
2023/04/03 04:56:06;;;;;;;7.27;4.60;;;2.40;99.90;;;;;;6219158;23;20176;-87
2023/04/03 04:58:31;;;;;;;4.95;2.95;;;2.40;99.90;;;;;;6220123;23;20638;-88
2023/04/03 05:01:05;;;;;;;5.73;3.40;;;2.40;99.90;;;;;;6246736;23;20152;-87
2023/04/03 05:03:31;;;;;;;10.50;2.50;;;2.50;99.90;;;;;;6242263;23;20156;-86
2023/04/03 05:05:57;;;;;;;3.78;2.83;;;2.50;99.90;;;;;;6230767;23;20549;-87
2023/04/03 05:08:22;;;;;;;9.33;4.03;;;2.50;99.90;;;;;;6240832;23;20164;-87
2023/04/03 05:10:48;;;;;;;8.40;4.90;;;2.50;99.90;;;;;;6243247;23;20210;-87
2023/04/03 05:13:14;;;;;;;4.18;2.75;;;2.60;99.90;;;;;;6242730;23;20509;-87
2023/04/03 05:15:40;;;;;;;7.53;2.95;;;2.60;99.90;;;;;;6241454;22;20238;-86
2023/04/03 05:18:05;;;;;;;10.20;7.10;;;2.60;99.90;;;;;;6235512;23;20152;-86
2023/04/03 05:20:32;;;;;;;2.87;2.67;;;2.60;99.90;;;;;;6239595;23;20226;-87
2023/04/03 05:22:57;;;;;;;10.80;7.30;;;2.60;99.90;;;;;;6240647;23;20371;-87
2023/04/03 05:25:23;;;;;;;6.57;3.23;;;2.70;99.90;;;;;;6240263;22;20168;-86
2023/04/03 05:27:49;;;;;;;5.20;3.50;;;2.80;99.90;;;;;;6242131;23;20176;-87
2023/04/03 05:30:15;;;;;;;6.15;2.70;;;2.90;99.90;;;;;;6239164;23;20574;-87
2023/04/03 05:32:42;;;;;;;2.63;2.10;;;3.00;99.90;;;;;;6244235;22;20159;-86
2023/04/03 05:35:08;;;;;;;4.15;2.20;;;3.10;99.90;;;;;;6242648;22;20686;-86
2023/04/03 05:37:35;;;;;;;16.33;10.60;;;3.10;99.90;;;;;;6243822;23;20667;-86
2023/04/03 05:40:02;;;;;;;13.00;9.00;;;3.10;99.90;;;;;;6242173;23;20240;-87
2023/04/03 05:42:27;;;;;;;5.10;3.67;;;3.10;99.90;;;;;;6242982;22;20149;-87
2023/04/03 05:44:53;;;;;;;7.23;2.93;;;3.30;99.90;;;;;;6239219;22;20168;-88
2023/04/03 05:47:19;;;;;;;8.73;5.57;;;3.30;99.90;;;;;;6238541;23;20447;-86
2023/04/03 05:49:45;;;;;;;10.35;8.05;;;3.50;99.90;;;;;;6238940;23;20240;-87
2023/04/03 05:52:28;;;;;;;6.20;4.30;;;3.40;99.90;;;;;;6240878;23;20171;-87
2023/04/03 05:54:54;;;;;;;6.20;3.45;;;3.40;99.90;;;;;;6240998;22;20377;-87
2023/04/03 05:57:20;;;;;;;3.53;3.17;;;3.40;99.90;;;;;;6240587;23;20595;-86
2023/04/03 05:59:46;;;;;;;7.57;4.53;;;3.50;99.90;;;;;;6240437;23;20167;-86
2023/04/03 06:02:17;;;;;;;6.65;3.85;;;3.60;99.90;;;;;;6241526;22;20149;-87
2023/04/03 06:04:43;;;;;;;3.03;2.70;;;3.90;99.90;;;;;;6239247;22;20194;-86
2023/04/03 06:07:18;;;;;;;4.77;2.93;;;3.90;99.90;;;;;;6242208;23;20207;-86
2023/04/03 06:09:43;;;;;;;3.95;2.42;;;4.00;99.90;;;;;;6242442;22;20517;-87
2023/04/03 06:12:10;;;;;;;2.67;1.90;;;4.00;99.90;;;;;;6237945;23;20620;-86
2023/04/03 06:14:35;;;;;;;5.82;3.38;;;4.10;99.90;;;;;;6236266;23;21311;-87
2023/04/03 06:17:02;;;;;;;8.53;3.27;;;4.40;99.90;;;;;;6237856;22;20176;-87
2023/04/03 06:19:28;;;;;;;3.97;3.17;;;4.40;99.90;;;;;;6239139;22;20187;-85
2023/04/03 06:21:54;;;;;;;4.10;3.45;;;4.40;99.90;;;;;;6236160;23;20206;-84
2023/04/03 06:24:21;;;;;;;5.93;2.60;;;4.30;99.90;;;;;;6236663;23;20156;-84
2023/04/03 06:26:47;;;;;;;4.03;2.35;;;4.30;99.90;;;;;;6237623;22;20494;-84
2023/04/03 06:29:13;;;;;;;5.83;2.83;;;4.40;99.90;;;;;;6240998;22;20133;-84
2023/04/03 06:31:39;;;;;;;7.47;2.20;;;4.30;99.90;;;;;;6240473;22;20142;-84
2023/04/03 06:34:06;;;;;;;4.90;2.78;;;4.30;99.90;;;;;;6239474;22;20347;-87
2023/04/03 06:36:31;;;;;;;3.90;2.58;;;4.40;99.90;;;;;;6240627;22;20222;-84
2023/04/03 06:38:57;;;;;;;5.80;2.33;;;4.50;99.90;;;;;;6237899;23;20141;-83
2023/04/03 06:41:23;;;;;;;4.63;3.40;;;4.60;99.90;;;;;;6241437;23;20137;-84
2023/04/03 06:43:48;;;;;;;5.57;2.87;;;4.70;99.90;;;;;;6237745;23;20133;-84
2023/04/03 06:46:19;;;;;;;4.10;2.80;;;4.60;99.90;;;;;;6238090;22;20596;-83
2023/04/03 06:48:44;;;;;;;4.72;3.38;;;4.80;99.90;;;;;;6238548;22;20129;-83
2023/04/03 06:51:22;;;;;;;4.57;2.90;;;4.70;99.90;;;;;;6235781;23;20171;-84
2023/04/03 06:53:51;;;;;;;7.68;3.90;;;4.90;99.90;;;;;;6236691;23;20156;-83
2023/04/03 06:56:16;;;;;;;10.30;3.83;;;5.10;99.90;;;;;;6237260;22;20184;-84
2023/04/03 06:58:43;;;;;;;9.07;3.40;;;5.30;99.90;;;;;;6240033;23;20156;-84
2023/04/03 07:01:13;;;;;;;5.40;3.15;;;5.70;99.90;;;;;;6240697;22;20215;-84
2023/04/03 07:03:39;;;;;;;12.27;4.38;;;6.40;99.90;;;;;;6242398;22;20311;-84
2023/04/03 07:06:06;;;;;;;6.75;3.70;;;6.80;99.90;;;;;;6239881;22;20191;-85
2023/04/03 07:08:33;;;;;;;7.50;3.38;;;7.20;99.90;;;;;;6238329;23;20282;-84
2023/04/03 07:10:59;;;;;;;5.60;3.08;;;7.50;99.90;;;;;;6238814;23;20152;-84
2023/04/03 07:13:26;;;;;;;4.10;2.53;;;8.30;99.90;;;;;;6240333;23;20140;-84
2023/04/03 07:15:52;;;;;;;2.70;2.50;;;8.10;99.90;;;;;;6213147;23;20426;-84
2023/04/03 07:18:18;;;;;;;3.33;2.65;;;9.90;99.90;;;;;;6235134;23;20159;-84
2023/04/03 07:20:43;;;;;;;9.53;2.80;;;10.60;99.90;;;;;;6211497;23;20528;-90
2023/04/03 07:23:10;;;;;;;4.90;2.70;;;9.90;99.90;;;;;;6210621;23;20152;-88
2023/04/03 07:25:35;;;;;;;3.65;2.58;;;10.00;99.90;;;;;;6237463;22;20219;-88
2023/04/03 07:28:01;;;;;;;7.50;3.50;;;10.10;99.90;;;;;;6213853;23;20183;-88
2023/04/03 07:30:27;;;;;;;4.10;2.93;;;10.70;99.90;;;;;;6239899;23;20137;-89
2023/04/03 07:32:52;;;;;;;8.10;3.60;;;10.80;99.90;;;;;;6211990;23;20368;-88
2023/04/03 07:35:18;;;;;;;2.70;2.47;;;12.10;99.90;;;;;;6235822;22;20195;-88
2023/04/03 07:37:44;;;;;;;2.78;1.98;;;13.50;99.30;;;;;;6239375;23;20144;-87
2023/04/03 07:40:10;;;;;;;4.77;2.30;;;13.50;95.90;;;;;;6240882;23;20149;-87
2023/04/03 07:42:36;;;;;;;6.13;2.93;;;12.10;96.50;;;;;;6239207;23;20867;-87
2023/04/03 07:45:03;;;;;;;5.50;2.85;;;11.90;96.90;;;;;;6237969;22;20172;-88
2023/04/03 07:47:28;;;;;;;5.28;3.17;;;11.80;96.60;;;;;;6241120;23;20532;-87
2023/04/03 07:49:54;;;;;;;12.97;3.07;;;11.30;96.60;;;;;;6216105;23;20160;-88
2023/04/03 07:52:19;;;;;;;4.43;2.60;;;11.90;97.20;;;;;;6242184;23;20206;-86
2023/04/03 07:54:45;;;;;;;6.57;2.80;;;10.50;96.40;;;;;;6241395;22;20137;-87
2023/04/03 07:57:11;;;;;;;5.30;3.40;;;9.60;98.70;;;;;;6243353;23;20137;-88
2023/04/03 07:59:37;;;;;;;7.85;2.63;;;9.40;98.90;;;;;;6214504;23;20152;-87
2023/04/03 08:02:04;;;;;;;10.73;3.17;;;8.80;99.90;;;;;;6241947;23;20133;-87
2023/04/03 08:04:30;;;;;;;5.28;3.25;;;8.30;99.90;;;;;;6216464;23;20153;-87
2023/04/03 08:06:56;;;;;;;5.43;2.57;;;7.90;99.90;;;;;;6243458;22;20269;-87
2023/04/03 08:09:21;;;;;;;3.10;2.80;;;7.90;99.90;;;;;;6242289;23;20136;-86
2023/04/03 08:11:47;;;;;;;5.70;3.00;;;8.40;99.90;;;;;;6214128;23;20191;-87
2023/04/03 08:14:18;;;;;;;5.37;2.57;;;8.40;99.90;;;;;;6242038;23;20700;-87
2023/04/03 08:16:45;;;;;;;4.75;2.85;;;8.20;99.90;;;;;;6240758;22;20177;-89
2023/04/03 08:19:12;;;;;;;4.63;3.13;;;7.70;99.90;;;;;;6242713;23;20152;-87
2023/04/03 08:21:41;;;;;;;8.10;3.15;;;7.70;99.90;;;;;;6243816;23;20129;-87
2023/04/03 08:24:07;;;;;;;5.20;2.50;;;8.30;99.90;;;;;;6240922;23;20136;-86
2023/04/03 08:26:32;;;;;;;4.07;2.40;;;8.50;99.90;;;;;;6242021;22;20276;-87
2023/04/03 08:28:58;;;;;;;4.47;2.70;;;8.60;99.90;;;;;;6214273;23;20429;-86
2023/04/03 08:31:24;;;;;;;7.20;2.90;;;;;;;;;;6241642;23;20556;-87
2023/04/03 08:33:50;;;;;;;2.53;2.33;;;8.80;99.90;;;;;;6217161;23;20207;-87
2023/04/03 08:36:20;;;;;;;5.43;2.90;;;10.10;99.90;;;;;;6214212;23;20187;-87
2023/04/03 08:38:46;;;;;;;3.95;2.00;;;11.00;99.90;;;;;;6244534;23;20165;-88
2023/04/03 08:41:36;;;;;;;5.50;2.20;;;10.50;97.20;;;;;;6244409;23;20152;-87
2023/04/03 08:44:22;;;;;;;3.72;2.47;;;9.60;99.30;;;;;;6244730;23;20360;-86
2023/04/03 08:47:00;;;;;;;4.63;2.50;;;9.60;99.40;;;;;;6243589;22;20176;-86
2023/04/03 08:49:37;;;;;;;3.38;2.10;;;10.20;97.30;;;;;;6243656;23;20571;-87
2023/04/03 08:52:12;;;;;;;2.97;1.65;;;9.50;95.30;;;;;;6245396;23;20145;-86
2023/04/03 08:54:50;;;;;;;3.25;1.70;;;8.80;97.40;;;;;;6216808;23;20148;-87
2023/04/03 08:57:20;;;;;;;9.98;4.47;;;9.10;98.00;;;;;;6241837;23;20246;-86
2023/04/03 08:59:45;;;;;;;3.15;2.65;;;10.10;96.80;;;;;;6217600;23;20246;-87
2023/04/03 09:02:34;;;;;;;4.93;2.57;;;10.30;96.30;;;;;;6210404;23;20665;-87
2023/04/03 09:05:06;;;;;;;2.10;1.80;;;10.20;94.90;;;;;;6214060;22;20161;-87
2023/04/03 09:07:38;;;;;;;2.72;2.47;;;10.20;94.80;;;;;;6242984;23;20164;-88
2023/04/03 09:10:05;;;;;;;3.42;1.65;;;10.00;95.50;;;;;;6244238;23;20137;-86
2023/04/03 09:12:39;;;;;;;6.35;2.03;;;9.40;96.20;;;;;;6206755;23;20199;-87
2023/04/03 09:15:25;;;;;;;1.90;1.70;;;9.00;96.10;;;;;;6244870;22;20459;-88
2023/04/03 09:18:05;;;;;;;5.70;1.98;;;9.10;96.50;;;;;;6217166;23;20156;-87
2023/04/03 09:20:56;;;;;;;2.20;1.95;;;9.30;95.50;;;;;;6216809;23;20488;-87
2023/04/03 09:23:32;;;;;;;2.75;2.22;;;9.30;96.00;;;;;;6245563;23;20137;-87
2023/04/03 09:26:05;;;;;;;3.63;2.08;;;9.20;97.20;;;;;;6216654;23;20563;-87
2023/04/03 09:28:37;;;;;;;4.88;2.08;;;9.30;96.40;;;;;;6245542;23;20132;-87
2023/04/03 09:31:23;;;;;;;4.00;2.22;;;9.60;96.80;;;;;;6218066;23;20191;-86
2023/04/03 09:34:02;;;;;;;3.45;1.95;;;9.50;97.00;;;;;;6216309;23;20287;-88
2023/04/03 09:36:37;;;;;;;4.85;2.85;;;9.50;98.40;;;;;;6213750;23;20250;-88
2023/04/03 09:39:11;;;;;;;3.50;1.90;;;10.00;99.20;;;;;;6214064;23;20587;-87
2023/04/03 09:41:37;;;;;;;3.05;2.67;;;9.90;97.10;;;;;;6215042;23;20160;-87
2023/04/03 09:44:17;;;;;;;3.77;1.80;;;10.10;96.60;;;;;;6212409;23;20601;-87
2023/04/03 09:46:43;;;;;;;2.22;2.03;;;10.40;95.40;;;;;;6214100;23;20510;-87
2023/04/03 09:49:11;;;;;;;5.77;2.83;;;10.50;95.40;;;;;;6240604;23;20156;-87
2023/04/03 09:51:37;;;;;;;2.78;1.55;;;10.80;95.10;;;;;;6215568;23;20156;-87
2023/04/03 09:54:40;;;;;;;2.95;2.03;;;10.70;93.50;;;;;;6242521;23;20145;-87
2023/04/03 09:57:10;;;;;;;3.17;1.80;;;10.20;95.10;;;;;;6215234;23;20179;-87
2023/04/03 09:59:58;;;;;;;3.92;1.90;;;10.00;95.90;;;;;;6238936;23;20152;-87
2023/04/03 10:02:43;;;;;;;7.43;1.83;;;9.40;96.40;;;;;;6239048;23;20361;-87
2023/04/03 10:05:33;;;;;;;3.33;2.22;;;9.60;95.40;;;;;;6239062;22;20192;-88
2023/04/03 10:08:13;;;;;;;3.20;1.98;;;9.70;96.90;;;;;;6240449;23;20184;-84
2023/04/03 10:10:41;;;;;;;5.15;2.20;;;9.80;96.70;;;;;;6238395;23;20626;-84
2023/04/03 10:13:12;;;;;;;4.35;2.17;;;9.10;96.10;;;;;;6239469;23;20133;-83
2023/04/03 10:15:43;;;;;;;6.40;2.50;;;9.00;96.30;;;;;;6237702;22;20169;-83
2023/04/03 10:18:29;;;;;;;5.30;2.10;;;9.20;97.80;;;;;;6206690;23;20156;-83
2023/04/03 10:21:02;;;;;;;5.85;2.55;;;8.90;97.90;;;;;;6191530;23;20603;-83
2023/04/03 10:23:35;;;;;;;4.47;2.45;;;8.80;98.30;;;;;;6212136;23;20495;-83
2023/04/03 10:26:39;;;;;;;2.00;1.80;;;8.90;99.40;;;;;;6212466;23;20175;-84
2023/04/03 10:29:31;;;;;;;4.10;1.42;;;8.80;97.80;;;;;;6212644;23;20184;-84
2023/04/03 10:32:12;;;;;;;11.38;2.70;;;8.60;98.60;;;;;;6210125;23;20152;-81
2023/04/03 10:34:43;;;;;;;8.27;2.53;;;8.40;97.90;;;;;;6215857;23;20151;-82
2023/04/03 10:37:36;;;;;;;3.75;2.75;;;8.20;99.20;;;;;;6236514;23;20145;-84
2023/04/03 10:40:32;;;;;;;5.35;2.05;;;8.00;99.70;;;;;;6237285;23;20171;-84
2023/04/03 10:43:11;;;;;;;3.10;2.20;;;8.20;99.70;;;;;;6239261;23;20137;-83
2023/04/03 10:46:00;;;;;;;5.00;1.80;;;8.40;99.90;;;;;;6215729;23;20223;-82
2023/04/03 10:49:00;;;;;;;4.90;2.13;;;8.50;97.80;;;;;;6217067;23;20176;-84
2023/04/03 10:51:37;;;;;;;4.75;2.25;;;8.10;98.90;;;;;;6217958;23;20156;-83
2023/04/03 10:54:12;;;;;;;3.38;2.20;;;8.10;98.90;;;;;;6243625;23;20144;-84
2023/04/03 10:57:08;;;;;;;10.32;2.63;;;7.80;99.60;;;;;;6243825;22;20217;-83
2023/04/03 10:59:44;;;;;;;3.55;2.65;;;7.90;99.90;;;;;;6215636;23;20152;-84
2023/04/03 11:02:24;;;;;;;3.92;2.00;;;7.90;99.70;;;;;;6218552;23;20136;-84
2023/04/03 11:04:57;;;;;;;2.97;2.35;;;7.50;99.40;;;;;;6218668;22;20155;-84
2023/04/03 11:07:35;;;;;;;3.00;2.10;;;7.50;99.80;;;;;;6246829;23;20479;-84
2023/04/03 11:10:13;;;;;;;2.53;2.30;;;7.50;99.90;;;;;;6245493;23;20567;-83
2023/04/03 11:12:56;;;;;;;3.70;2.08;;;7.60;99.10;;;;;;6219702;23;20140;-84
2023/04/03 11:15:23;;;;;;;5.35;2.05;;;7.50;99.30;;;;;;6220688;23;20189;-83
2023/04/03 11:18:00;;;;;;;7.28;2.75;;;7.50;99.90;;;;;;6219026;23;20595;-83
2023/04/03 11:20:32;;;;;;;4.65;2.00;;;7.60;99.90;;;;;;6244183;23;20172;-82
2023/04/03 11:23:06;;;;;;;7.90;1.98;;;7.60;99.40;;;;;;6218740;23;20704;-83
2023/04/03 11:25:35;;;;;;;4.75;2.15;;;7.50;99.80;;;;;;6245994;22;20176;-84
2023/04/03 11:28:06;;;;;;;4.97;3.53;;;7.20;97.00;;;;;;6244646;23;20221;-81
2023/04/03 11:30:51;;;;;;;4.38;2.47;;;7.10;96.60;;;;;;6247006;23;20462;-84
2023/04/03 11:33:35;;;;;;;8.75;4.60;;;7.00;97.10;;;;;;6217974;23;20240;-84
2023/04/03 11:36:09;;;;;;;5.00;2.60;;;7.00;98.10;;;;;;6244454;22;20168;-84
2023/04/03 11:38:40;;;;;;;10.07;4.78;;;7.20;97.70;;;;;;6248064;23;20139;-82
2023/04/03 11:41:07;;;;;;;7.30;4.45;;;7.20;97.40;;;;;;6247607;23;20133;-83
2023/04/03 11:43:39;;;;;;;12.68;5.30;;;7.10;98.30;;;;;;6220408;23;20153;-83
2023/04/03 11:46:07;;;;;;;4.97;3.58;;;7.50;98.60;;;;;;6244634;22;20168;-83
2023/04/03 11:48:37;;;;;;;7.25;3.20;;;7.50;99.30;;;;;;6219048;23;20144;-82
2023/04/03 11:51:12;;;;;;;6.05;4.90;;;7.50;95.90;;;;;;6221797;23;20148;-83
2023/04/03 11:53:40;;;;;;;4.43;3.95;;;7.50;96.40;;;;;;6219656;23;20468;-83
2023/04/03 11:56:27;;;;;;;5.57;2.80;;;7.60;96.60;;;;;;6216135;23;20231;-83
2023/04/03 11:59:04;;;;;;;7.43;2.40;;;7.80;95.00;;;;;;6215984;23;20465;-83
2023/04/03 12:01:46;;;;;;;11.88;5.15;;;7.80;94.90;;;;;;6215013;23;20152;-82
2023/04/03 12:04:16;;;;;;;4.53;2.10;;;8.40;95.40;;;;;;6241305;23;20149;-83
2023/04/03 12:06:51;;;;;;;9.13;5.70;;;8.00;94.40;;;;;;6242044;22;20239;-83
2023/04/03 12:09:29;;;;;;;6.57;2.30;;;8.20;95.00;;;;;;6243629;23;20701;-84
2023/04/03 12:11:56;;;;;;;4.15;2.55;;;8.40;93.80;;;;;;6245416;23;20128;-84
2023/04/03 12:14:25;;;;;;;3.25;2.15;;;8.20;94.10;;;;;;6219434;23;20141;-83
2023/04/03 12:16:53;;;;;;;2.67;2.13;;;8.40;92.80;;;;;;6243166;22;20172;-83
2023/04/03 12:19:43;;;;;;;3.13;2.10;;;8.20;92.90;;;;;;6218087;23;20152;-84
2023/04/03 12:22:12;;;;;;;4.28;2.20;;;7.70;94.00;;;;;;6242000;23;20155;-83
2023/04/03 12:24:52;;;;;;;2.95;1.80;;;7.40;95.10;;;;;;6213205;23;20145;-84
2023/04/03 12:27:28;;;;;;;2.88;1.13;;;7.50;96.60;;;;;;6213089;23;20172;-83
2023/04/03 12:29:56;;;;;;;2.40;1.90;;;7.40;95.70;;;;;;6241676;23;20125;-83
2023/04/03 12:33:02;;;;;;;3.40;1.98;;;7.40;95.60;;;;;;6242916;23;20602;-85
2023/04/03 12:35:27;;;;;;;2.20;1.58;;;7.60;96.30;;;;;;6240948;22;20164;-83
2023/04/03 12:38:33;;;;;;;2.30;1.63;;;8.00;93.40;;;;;;6238789;23;20153;-83
2023/04/03 12:41:23;;;;;;;3.65;2.28;;;8.10;94.00;;;;;;6240575;23;20147;-83
2023/04/03 12:44:17;;;;;;;4.22;2.08;;;8.50;95.10;;;;;;6214409;23;20214;-84
2023/04/03 12:46:49;;;;;;;2.10;1.70;;;8.80;93.20;;;;;;6214869;23;20631;-84
2023/04/03 12:49:42;;;;;;;5.28;1.80;;;9.10;93.30;;;;;;6214782;23;20152;-84
2023/04/03 12:52:44;;;;;;;4.03;1.73;;;9.30;89.40;;;;;;6236747;23;20171;-85
2023/04/03 12:55:20;;;;;;;15.65;7.05;;;9.30;89.10;;;;;;6214848;23;20171;-83
2023/04/03 12:57:46;;;;;;;27.52;12.02;;;9.00;91.00;;;;;;6213266;23;20171;-83
2023/04/03 13:00:35;;;;;;;4.95;2.05;;;8.70;92.50;;;;;;6214279;23;20183;-84
2023/04/03 13:03:06;;;;;;;3.67;2.15;;;8.40;92.80;;;;;;6240914;23;20153;-84
2023/04/03 13:05:32;;;;;;;1.73;1.60;;;8.30;92.50;;;;;;6240632;22;20187;-83
2023/04/03 13:08:04;;;;;;;3.55;1.90;;;8.10;93.00;;;;;;6239855;23;20172;-84
2023/04/03 13:10:31;;;;;;;3.60;1.90;;;8.00;93.20;;;;;;6214416;23;20152;-83
2023/04/03 13:13:06;;;;;;;3.85;1.77;;;8.00;93.30;;;;;;6241410;23;20172;-84
2023/04/03 13:15:42;;;;;;;6.30;1.92;;;8.20;93.70;;;;;;6239727;22;20649;-83